Time;durP1;ratioP1;P1;durP2;ratioP2;P2;SDS_P1;SDS_P2;PMS_P1;PMS_P2;Temp;Humidity;BMP_temperature;BMP_pressure;BME280_temperature;BME280_humidity;BME280_pressure;Samples;Min_cycle;Max_cycle;Signal;HPM_P1;HPM_P2
2022/01/28 00:01:55;;;;;;;0.65;0.65;;;;;;;5.61;83.66;102274.56;5185853;28;20021;-80
2022/01/28 00:04:27;;;;;;;0.70;0.70;;;;;;;5.56;82.83;102284.00;5179505;28;20044;-81
2022/01/28 00:07:01;;;;;;;12.25;2.05;;;;;;;5.60;83.87;102285.84;5178974;28;20033;-82
2022/01/28 00:09:31;;;;;;;0.70;0.70;;;;;;;5.74;83.85;102294.78;5195406;28;20467;-82
2022/01/28 00:12:11;;;;;;;0.40;0.40;;;;;;;5.57;82.49;102304.00;5175191;28;20110;-81
2022/01/28 00:39:29;;;;;;;0.68;0.68;;;;;;;5.62;82.68;102373.53;5200225;28;20044;-82
2022/01/28 00:42:01;;;;;;;0.40;0.40;;;;;;;5.62;83.23;102367.47;5209454;28;20041;-82
2022/01/28 00:44:32;;;;;;;0.32;0.32;;;;;;;5.64;82.30;102379.66;5187833;28;20467;-82
2022/01/28 00:47:04;;;;;;;9.55;1.70;;;;;;;5.64;82.43;102390.09;5185434;28;20025;-82
2022/01/28 00:49:37;;;;;;;0.50;0.50;;;;;;;5.54;81.82;102393.34;5199124;28;20622;-82
2022/01/28 00:52:11;;;;;;;1.08;1.02;;;;;;;5.54;81.94;102395.94;5171883;28;20025;-84
2022/01/28 00:54:41;;;;;;;;;;;;;;;5.55;82.38;102392.50;5176704;28;20024;-82
2022/01/28 00:57:12;;;;;;;0.98;0.98;;;;;;;5.44;81.35;102405.28;5166934;28;20741;-83
2022/01/28 00:59:43;;;;;;;8.23;1.58;;;;;;;5.40;81.07;102403.47;5180498;28;20037;-83
2022/01/28 01:02:21;;;;;;;0.63;0.63;;;;;;;5.54;81.96;102401.16;5188572;28;20037;-83
2022/01/28 01:04:52;;;;;;;1.60;1.50;;;;;;;5.43;82.04;102398.34;5168690;28;20083;-82
2022/01/28 01:07:22;;;;;;;1.02;0.93;;;;;;;5.45;82.24;102408.75;5171379;28;20021;-82
2022/01/28 01:09:53;;;;;;;0.65;0.60;;;;;;;5.58;82.34;102421.19;5188034;28;20033;-82
2022/01/28 01:12:25;;;;;;;0.40;0.40;;;;;;;5.59;81.98;102430.75;5204319;28;20463;-81
2022/01/28 01:14:57;;;;;;;;;;;;;;;5.58;82.07;102426.41;5195991;28;20025;-81
2022/01/28 01:17:55;;;;;;;0.85;0.85;;;;;;;5.47;81.63;102427.91;5216724;28;20594;-82
2022/01/28 01:23:09;;;;;;;0.50;0.50;;;;;;;5.46;81.92;102434.81;5205951;28;20045;-81
2022/01/28 01:25:48;;;;;;;0.40;0.40;;;;;;;5.55;82.27;102438.47;5184889;28;20093;-81
2022/01/28 01:28:21;;;;;;;0.40;0.40;;;;;;;5.53;82.04;102435.84;5205331;28;20043;-82
2022/01/28 01:30:52;;;;;;;0.55;0.55;;;;;;;5.55;82.19;102441.97;5190732;28;20032;-81
2022/01/28 01:33:24;;;;;;;0.55;0.55;;;;;;;5.57;80.79;102442.88;5176624;28;20075;-82
2022/01/28 01:35:54;;;;;;;1.95;1.10;;;;;;;5.53;81.24;102443.66;5189710;28;20377;-81
2022/01/28 01:38:27;;;;;;;0.47;0.47;;;;;;;5.43;80.25;102446.91;5193448;28;20103;-81
2022/01/28 01:41:01;;;;;;;0.75;0.75;;;;;;;5.40;81.17;102442.50;5178490;28;20030;-81
2022/01/28 01:43:52;;;;;;;0.60;0.60;;;;;;;5.38;80.89;102448.53;5197470;28;20033;-81
2022/01/28 01:52:08;;;;;;;0.55;0.55;;;;;;;5.48;81.84;102451.38;5195354;28;20516;-82
2022/01/28 01:54:43;;;;;;;0.60;0.60;;;;;;;5.35;81.06;102460.63;5198963;28;20396;-82
2022/01/28 01:57:14;;;;;;;0.45;0.45;;;;;;;5.41;81.23;102466.84;5197333;28;20510;-82
2022/01/28 01:59:44;;;;;;;0.50;0.50;;;;;;;5.31;81.54;102471.81;5199391;28;20036;-83
2022/01/28 02:02:15;;;;;;;1.77;1.60;;;;;;;5.41;81.04;102467.69;5187900;28;20067;-83
2022/01/28 02:04:46;;;;;;;0.40;0.40;;;;;;;5.39;80.98;102464.16;5195230;28;20017;-81
2022/01/28 02:07:17;;;;;;;0.63;0.63;;;;;;;5.33;80.93;102464.91;5191680;28;20025;-82
2022/01/28 02:09:48;;;;;;;0.40;0.40;;;;;;;5.38;81.11;102461.53;5182265;28;20446;-83
2022/01/28 02:12:18;;;;;;;0.40;0.40;;;;;;;5.15;80.24;102459.31;5194496;28;20046;-83
2022/01/28 02:14:49;;;;;;;0.88;0.88;;;;;;;5.19;80.64;102472.44;5174963;28;20033;-83
2022/01/28 02:17:20;;;;;;;0.47;0.47;;;;;;;5.22;80.41;102473.31;5186889;28;20036;-83
2022/01/28 02:19:50;;;;;;;0.70;0.70;;;;;;;5.16;80.53;102476.69;5188748;28;20026;-83
2022/01/28 02:22:21;;;;;;;0.77;0.77;;;;;;;5.10;80.26;102484.31;5148486;28;20041;-83
2022/01/28 02:24:51;;;;;;;0.40;0.40;;;;;;;5.10;80.29;102479.13;5184206;28;20039;-83
2022/01/28 02:27:22;;;;;;;0.40;0.40;;;;;;;4.86;80.18;102480.28;5177933;28;20484;-83
2022/01/28 02:29:54;;;;;;;0.70;0.70;;;;;;;4.70;80.08;102479.91;5182100;28;20060;-83
2022/01/28 02:32:25;;;;;;;0.47;0.47;;;;;;;4.55;80.34;102490.78;5167395;28;20432;-83
2022/01/28 02:34:56;;;;;;;0.93;0.93;;;;;;;4.62;80.67;102497.03;5177237;28;20020;-83
2022/01/28 02:37:26;;;;;;;5.05;2.17;;;;;;;4.78;81.22;102511.31;5171212;28;20064;-82
2022/01/28 02:39:57;;;;;;;0.40;0.40;;;;;;;4.70;80.66;102515.44;5179939;28;20021;-83
2022/01/28 02:42:44;;;;;;;1.67;1.58;;;;;;;4.67;81.02;102507.53;5168738;28;20033;-82
2022/01/28 02:45:25;;;;;;;0.40;0.40;;;;;;;4.71;81.48;102512.88;5186834;28;20104;-82
2022/01/28 02:48:00;;;;;;;3.95;1.40;;;;;;;4.81;80.47;102510.50;5186732;28;20038;-84
2022/01/28 02:50:40;;;;;;;0.40;0.40;;;;;;;4.64;80.46;102510.03;5197747;28;20041;-82
2022/01/28 02:53:21;;;;;;;1.10;1.10;;;;;;;4.56;81.35;102515.06;5192819;28;20084;-84
2022/01/28 02:56:03;;;;;;;0.50;0.50;;;;;;;4.63;80.79;102511.78;5231249;28;20037;-83
2022/01/28 02:58:34;;;;;;;0.40;0.40;;;;;;;4.51;81.29;102507.13;5195033;28;20120;-82
2022/01/28 03:01:15;;;;;;;1.50;1.40;;;;;;;4.54;81.52;102519.34;5196966;28;20097;-83
2022/01/28 03:03:48;;;;;;;0.60;0.60;;;;;;;4.75;80.88;102519.03;5198336;28;20048;-83
2022/01/28 03:06:19;;;;;;;0.80;0.80;;;;;;;4.82;80.88;102522.69;5192966;28;20543;-84
2022/01/28 03:09:12;;;;;;;0.40;0.40;;;;;;;4.64;80.30;102523.06;5172023;28;20037;-81
2022/01/28 03:11:44;;;;;;;1.20;1.17;;;;;;;4.43;81.34;102518.16;5192062;28;20021;-81
2022/01/28 03:19:47;;;;;;;0.68;0.68;;;;;;;4.54;81.39;102520.22;5206290;28;20049;-83
2022/01/28 03:22:18;;;;;;;0.50;0.50;;;;;;;4.56;81.48;102515.06;5174462;28;20032;-82
2022/01/28 03:24:52;;;;;;;0.63;0.63;;;;;;;4.58;81.53;102531.59;5184592;28;20033;-82
2022/01/28 03:27:44;;;;;;;;;;;;;;;4.65;80.77;102530.00;5200833;28;20037;-83
2022/01/28 03:30:14;;;;;;;0.85;0.80;;;;;;;4.60;80.82;102542.88;5181793;28;20242;-82
2022/01/28 03:32:45;;;;;;;0.45;0.45;;;;;;;4.58;80.53;102560.19;5191213;28;20067;-83
2022/01/28 03:35:17;;;;;;;0.40;0.40;;;;;;;4.52;81.13;102560.00;5222802;28;20032;-83
2022/01/28 03:37:58;;;;;;;3.78;2.05;;;;;;;4.57;81.49;102558.44;5211755;28;20494;-81
2022/01/28 03:40:36;;;;;;;1.33;0.75;;;;;;;4.57;80.80;102550.63;5180903;28;20036;-82
2022/01/28 03:43:06;;;;;;;3.15;1.15;;;;;;;4.62;80.81;102558.56;5197546;28;20029;-82
2022/01/28 03:45:37;;;;;;;0.50;0.50;;;;;;;4.70;80.81;102552.69;5182497;28;20037;-81
2022/01/28 03:48:11;;;;;;;0.70;0.70;;;;;;;4.73;80.26;102565.81;5185145;28;20048;-81
2022/01/28 03:50:41;;;;;;;;;;;;;;;4.76;80.25;102566.69;5193667;28;20083;-82
2022/01/28 03:53:12;;;;;;;0.40;0.40;;;;;;;4.55;81.25;102573.97;5176098;28;19913;-81
2022/01/28 03:55:42;;;;;;;1.95;1.85;;;;;;;4.71;80.72;102579.59;5201284;28;20044;-81
2022/01/28 03:58:14;;;;;;;0.40;0.40;;;;;;;4.48;80.42;102579.84;5181227;28;20083;-81
2022/01/28 04:00:45;;;;;;;1.67;1.58;;;;;;;4.60;80.49;102574.09;5200088;28;20029;-81
2022/01/28 04:11:31;;;;;;;1.08;1.08;;;;;;;4.67;80.46;102591.63;5183979;28;20017;-82
2022/01/28 04:14:11;;;;;;;0.35;0.35;;;;;;;4.68;81.01;102589.91;5168757;28;20044;-82
2022/01/28 04:19:31;;;;;;;0.75;0.75;;;;;;;4.78;80.84;102598.84;5191249;28;20043;-83
2022/01/28 04:22:04;;;;;;;0.50;0.50;;;;;;;4.75;80.58;102611.78;5202467;28;20029;-82
2022/01/28 04:24:35;;;;;;;3.83;2.17;;;;;;;4.75;80.92;102603.97;5196403;28;20178;-81
2022/01/28 04:27:09;;;;;;;0.50;0.50;;;;;;;4.76;80.42;102608.31;5174135;28;20028;-82
2022/01/28 04:29:39;;;;;;;;;;;;;;;4.58;80.72;102604.38;5182819;28;20036;-83
2022/01/28 04:32:10;;;;;;;0.57;0.57;;;;;;;4.73;80.84;102607.41;5172504;28;19913;-83
2022/01/28 04:34:44;;;;;;;0.50;0.50;;;;;;;4.83;80.22;102605.06;5181744;28;20063;-83
2022/01/28 04:37:26;;;;;;;;;;;;;;;4.77;79.82;102607.47;5213416;28;20028;-83
2022/01/28 04:40:07;;;;;;;0.50;0.50;;;;;;;4.71;80.67;102614.28;5191367;28;19908;-82
2022/01/28 04:48:28;;;;;;;0.70;0.70;;;;;;;4.68;80.31;102611.59;5215654;28;20029;-82
2022/01/28 04:59:26;;;;;;;3.45;1.10;;;;;;;4.50;80.93;102642.28;5208745;28;20056;-80
2022/01/28 05:26:36;;;;;;;0.40;0.40;;;;;;;4.62;80.75;102663.44;5197946;28;20037;-80
2022/01/28 05:29:11;;;;;;;0.40;0.40;;;;;;;4.58;80.82;102659.00;5205532;28;20048;-80
2022/01/28 05:31:42;;;;;;;0.75;0.75;;;;;;;4.48;80.67;102654.34;5199425;28;20029;-82
2022/01/28 05:34:13;;;;;;;0.50;0.50;;;;;;;4.52;80.15;102663.97;5170246;28;20048;-82
2022/01/28 05:36:45;;;;;;;0.50;0.50;;;;;;;4.64;80.57;102663.47;5187904;28;20051;-81
2022/01/28 05:39:15;;;;;;;0.60;0.60;;;;;;;4.55;80.98;102669.28;5180899;28;20045;-80
2022/01/28 05:41:46;;;;;;;0.50;0.50;;;;;;;4.60;80.68;102670.28;5188127;28;20029;-80
2022/01/28 05:44:18;;;;;;;20.58;1.58;;;;;;;4.74;80.11;102678.50;5185418;28;20041;-81
2022/01/28 05:46:52;;;;;;;0.40;0.40;;;;;;;4.55;80.28;102677.94;5170563;28;20029;-81
2022/01/28 05:49:23;;;;;;;0.40;0.40;;;;;;;4.53;80.05;102686.56;5192278;28;20094;-80
2022/01/28 05:51:53;;;;;;;1.38;1.27;;;;;;;4.52;81.11;102692.59;5188252;28;20029;-80
2022/01/28 05:54:24;;;;;;;0.47;0.47;;;;;;;4.53;80.34;102692.66;5179119;28;20590;-80
2022/01/28 05:56:54;;;;;;;0.40;0.40;;;;;;;4.51;81.41;102693.41;5177505;28;20044;-82
2022/01/28 05:59:25;;;;;;;1.98;1.05;;;;;;;4.61;80.52;102692.84;5183099;28;20125;-81
2022/01/28 06:01:56;;;;;;;0.73;0.73;;;;;;;4.59;80.56;102694.53;5194997;28;20111;-80
2022/01/28 06:04:28;;;;;;;0.70;0.70;;;;;;;4.67;80.95;102699.97;5195356;28;20033;-81
2022/01/28 06:06:58;;;;;;;0.40;0.40;;;;;;;4.54;80.43;102703.91;5186734;28;20029;-81
2022/01/28 06:09:29;;;;;;;0.45;0.45;;;;;;;4.51;81.15;102706.41;5184121;28;20041;-81
2022/01/28 06:12:02;;;;;;;0.50;0.50;;;;;;;4.60;80.37;102709.28;5201844;28;20042;-80
2022/01/28 06:14:32;;;;;;;0.70;0.70;;;;;;;4.56;80.84;102717.84;5203704;28;20044;-80
2022/01/28 06:17:03;;;;;;;0.50;0.50;;;;;;;4.60;80.63;102730.09;5187898;28;20033;-80
2022/01/28 06:19:34;;;;;;;1.65;1.55;;;;;;;4.53;80.45;102722.94;5181310;28;20049;-81
2022/01/28 06:22:04;;;;;;;0.50;0.50;;;;;;;4.49;81.07;102734.09;5232223;28;20090;-80
2022/01/28 06:24:38;;;;;;;1.02;1.02;;;;;;;4.36;80.64;102736.31;5179884;28;20116;-80
2022/01/28 06:27:09;;;;;;;0.60;0.60;;;;;;;4.48;81.30;102734.94;5194045;28;20033;-80
2022/01/28 06:29:39;;;;;;;0.75;0.75;;;;;;;4.45;81.09;102734.84;5163642;28;20119;-80
2022/01/28 06:32:11;;;;;;;0.82;0.82;;;;;;;4.48;81.23;102745.34;5185833;28;20124;-79
2022/01/28 06:34:42;;;;;;;0.65;0.65;;;;;;;4.56;81.16;102754.25;5194360;28;20029;-80
2022/01/28 06:37:12;;;;;;;6.22;1.08;;;;;;;4.58;81.45;102757.78;5174343;28;20093;-81
2022/01/28 06:39:43;;;;;;;0.40;0.40;;;;;;;4.57;80.91;102764.69;5172341;28;20087;-80
2022/01/28 06:42:13;;;;;;;0.50;0.50;;;;;;;4.55;80.65;102761.16;5185637;28;20060;-80
2022/01/28 06:44:44;;;;;;;0.68;0.68;;;;;;;4.47;80.54;102764.38;5195987;28;20036;-80
2022/01/28 06:47:14;;;;;;;1.60;1.60;;;;;;;4.46;80.95;102757.41;5201296;28;20033;-81
2022/01/28 06:49:45;;;;;;;0.40;0.40;;;;;;;4.53;80.97;102768.03;5209579;28;20567;-80
2022/01/28 06:52:15;;;;;;;0.40;0.40;;;;;;;4.52;81.38;102766.28;5212441;28;20025;-80
2022/01/28 06:54:46;;;;;;;0.60;0.60;;;;;;;4.47;80.90;102762.63;5190656;28;20609;-80
2022/01/28 06:57:16;;;;;;;3.63;1.42;;;;;;;4.49;80.88;102762.69;5217113;28;20048;-80
2022/01/28 06:59:47;;;;;;;0.40;0.40;;;;;;;4.55;81.01;102768.94;5186918;28;20440;-81
2022/01/28 07:02:18;;;;;;;4.90;2.67;;;;;;;4.47;80.82;102769.56;5198828;28;20033;-80
2022/01/28 07:04:49;;;;;;;1.20;1.20;;;;;;;4.48;80.79;102773.94;5180643;28;20017;-81
2022/01/28 07:07:22;;;;;;;0.30;0.30;;;;;;;4.40;80.66;102778.88;5201367;28;20036;-81
2022/01/28 07:09:53;;;;;;;;;;;;;;;4.44;80.44;102780.75;5190295;28;20029;-82
2022/01/28 07:12:23;;;;;;;0.50;0.50;;;;;;;4.50;80.76;102780.06;5152069;28;19913;-84
2022/01/28 07:14:56;;;;;;;0.50;0.50;;;;;;;4.47;81.13;102787.75;5181293;28;20183;-82
2022/01/28 07:17:27;;;;;;;1.13;1.13;;;;;;;4.43;81.04;102793.69;5166373;28;20035;-83
2022/01/28 07:20:00;;;;;;;;;;;;;;;4.54;80.71;102797.50;5175100;28;20035;-83
2022/01/28 07:22:31;;;;;;;1.50;1.25;;;;;;;4.44;80.98;102798.03;5185813;28;19921;-81
2022/01/28 07:25:11;;;;;;;0.35;0.35;;;;;;;4.35;81.38;102804.72;5183120;28;20040;-82
2022/01/28 07:27:42;;;;;;;0.75;0.75;;;;;;;4.41;81.28;102809.22;5191481;28;20035;-81
2022/01/28 07:30:13;;;;;;;0.60;0.60;;;;;;;4.51;81.07;102820.81;5192743;28;20123;-81
2022/01/28 07:32:44;;;;;;;1.55;1.40;;;;;;;4.35;82.09;102811.66;5174943;28;20048;-82
2022/01/28 07:35:15;;;;;;;0.70;0.70;;;;;;;4.34;81.79;102812.47;5196754;28;20032;-81
2022/01/28 07:37:46;;;;;;;0.90;0.90;;;;;;;4.43;81.53;102820.56;5196389;28;20053;-81
2022/01/28 07:40:16;;;;;;;0.40;0.40;;;;;;;4.40;81.98;102821.38;5183126;28;20029;-80
2022/01/28 07:42:47;;;;;;;0.50;0.50;;;;;;;4.36;81.19;102819.47;5221623;28;20055;-81
2022/01/28 07:45:17;;;;;;;0.75;0.75;;;;;;;4.43;81.38;102822.28;5189013;28;20431;-80
2022/01/28 07:47:48;;;;;;;2.08;1.40;;;;;;;4.33;81.52;102822.00;5213644;28;20067;-80
2022/01/28 07:50:19;;;;;;;0.50;0.50;;;;;;;4.16;82.38;102821.44;5182323;28;20033;-80
2022/01/28 07:52:50;;;;;;;0.85;0.85;;;;;;;4.30;82.05;102808.91;5189549;28;20124;-81
2022/01/28 07:55:23;;;;;;;1.20;1.20;;;;;;;4.37;82.35;102821.25;5171670;28;20547;-81
2022/01/28 07:57:56;;;;;;;1.10;1.10;;;;;;;4.27;81.90;102824.38;5156385;28;20037;-81
2022/01/28 08:00:30;;;;;;;1.38;1.05;;;;;;;4.26;82.70;102817.41;5198137;28;20021;-80
2022/01/28 08:03:03;;;;;;;5.82;2.83;;;;;;;4.31;82.28;102831.47;5191146;28;20057;-81
2022/01/28 08:05:34;;;;;;;;;;;;;;;4.41;82.30;102825.72;5178573;28;20124;-81
2022/01/28 08:08:18;;;;;;;1.30;1.20;;;;;;;4.39;82.04;102827.41;5194507;28;20535;-81
2022/01/28 08:10:49;;;;;;;0.55;0.55;;;;;;;4.33;82.41;102822.00;5199820;28;20017;-81
2022/01/28 08:13:19;;;;;;;0.50;0.50;;;;;;;4.35;82.26;102830.72;5177455;28;20063;-81
2022/01/28 08:15:50;;;;;;;0.57;0.57;;;;;;;4.41;82.89;102830.03;5194129;28;20061;-81
2022/01/28 08:18:20;;;;;;;0.47;0.47;;;;;;;4.34;83.30;102831.53;5177959;28;20033;-80
2022/01/28 08:20:52;;;;;;;2.60;2.40;;;;;;;4.45;82.65;102837.13;5199450;28;20102;-81
2022/01/28 08:23:25;;;;;;;2.03;1.60;;;;;;;4.38;83.07;102833.41;5205665;28;20055;-81
2022/01/28 08:25:55;;;;;;;0.57;0.57;;;;;;;4.51;82.72;102836.41;5178352;28;20033;-79
2022/01/28 08:28:26;;;;;;;5.47;2.15;;;;;;;4.47;83.35;102848.41;5182451;28;20032;-81
2022/01/28 08:31:00;;;;;;;2.75;2.35;;;;;;;4.43;83.26;102858.66;5180446;28;20029;-84
2022/01/28 08:33:34;;;;;;;0.80;0.80;;;;;;;4.41;84.08;102859.53;5156483;28;20112;-80
2022/01/28 08:36:11;;;;;;;;;;;;;;;4.52;83.00;102866.78;5180002;28;20028;-80
2022/01/28 08:38:46;;;;;;;0.82;0.82;;;;;;;4.53;82.81;102866.84;5173587;28;19913;-81
2022/01/28 08:41:19;;;;;;;0.70;0.70;;;;;;;4.58;82.94;102861.78;5205300;28;20694;-83
2022/01/28 08:43:51;;;;;;;1.33;1.15;;;;;;;4.68;82.23;102874.22;5182771;28;20431;-82
2022/01/28 08:46:23;;;;;;;1.43;1.33;;;;;;;4.68;83.09;102886.38;5191346;28;20405;-81
2022/01/28 08:49:10;;;;;;;2.28;1.73;;;;;;;4.63;83.25;102886.22;5163161;28;20078;-84
2022/01/28 08:51:44;;;;;;;0.70;0.70;;;;;;;4.76;82.62;102876.19;5197883;28;20029;-81
2022/01/28 08:54:15;;;;;;;0.65;0.65;;;;;;;4.76;83.02;102873.59;5177626;28;20040;-80
2022/01/28 08:56:46;;;;;;;1.75;1.15;;;;;;;4.70;83.12;102875.16;5196386;28;20029;-81
2022/01/28 08:59:16;;;;;;;0.73;0.73;;;;;;;4.69;83.33;102876.00;5198581;28;20064;-81
2022/01/28 09:01:49;;;;;;;2.65;1.73;;;;;;;4.63;82.54;102880.16;5209691;28;20032;-81
2022/01/28 09:04:20;;;;;;;0.60;0.60;;;;;;;4.71;82.65;102873.47;5171657;28;20048;-82
2022/01/28 09:06:50;;;;;;;1.33;1.23;;;;;;;4.84;82.48;102872.09;5218034;28;20383;-82
2022/01/28 09:09:21;;;;;;;1.75;1.65;;;;;;;4.81;82.27;102865.09;5169027;28;20044;-79
2022/01/28 09:14:23;;;;;;;1.05;1.05;;;;;;;4.62;83.56;102880.97;5195946;28;20041;-79
2022/01/28 09:16:56;;;;;;;0.43;0.43;;;;;;;4.62;83.42;102878.38;5213288;28;20065;-80
2022/01/28 09:19:30;;;;;;;0.75;0.75;;;;;;;4.77;82.78;102872.75;5176386;28;20064;-80
2022/01/28 09:22:01;;;;;;;1.90;1.40;;;;;;;4.80;82.92;102878.06;5202566;28;20112;-80
2022/01/28 09:24:31;;;;;;;0.70;0.70;;;;;;;4.73;82.84;102885.69;5192589;28;20129;-80
2022/01/28 09:27:02;;;;;;;0.85;0.57;;;;;;;4.76;83.12;102897.00;5176115;28;20529;-80
2022/01/28 09:29:33;;;;;;;2.17;1.52;;;;;;;4.77;83.38;102889.25;5200090;28;20091;-80
2022/01/28 09:32:05;;;;;;;0.80;0.80;;;;;;;4.70;82.98;102887.31;5203870;28;20017;-80
2022/01/28 09:34:35;;;;;;;0.98;0.98;;;;;;;4.84;83.43;102905.94;5175292;28;20029;-79
2022/01/28 09:37:09;;;;;;;1.13;1.13;;;;;;;4.82;83.56;102905.03;5187475;28;20103;-80
2022/01/28 09:39:45;;;;;;;1.10;0.75;;;;;;;4.90;82.87;102903.53;5190384;28;20067;-78
2022/01/28 09:42:19;;;;;;;0.93;0.93;;;;;;;4.84;82.76;102901.63;5185969;28;20463;-78
2022/01/28 09:44:49;;;;;;;1.83;1.67;;;;;;;4.96;82.91;102893.31;5188197;28;20033;-79
2022/01/28 09:47:29;;;;;;;0.80;0.80;;;;;;;5.00;83.15;102907.31;5164532;28;20741;-79
2022/01/28 09:50:00;;;;;;;0.57;0.57;;;;;;;5.09;82.88;102909.28;5211720;28;20029;-78
2022/01/28 09:52:33;;;;;;;1.42;1.20;;;;;;;5.09;82.34;102914.50;5198646;28;20029;-80
2022/01/28 09:55:13;;;;;;;3.40;0.98;;;;;;;5.12;82.45;102914.59;5197040;28;20399;-79
2022/01/28 09:57:47;;;;;;;0.63;0.63;;;;;;;4.95;82.40;102914.97;5210603;28;20037;-78
2022/01/28 10:00:21;;;;;;;0.40;0.40;;;;;;;4.96;82.49;102919.34;5194380;28;20093;-80
2022/01/28 10:03:06;;;;;;;0.40;0.40;;;;;;;5.03;82.38;102912.63;5181131;28;20124;-82
2022/01/28 10:05:39;;;;;;;0.77;0.77;;;;;;;4.99;82.56;102914.25;5202634;28;20094;-80
2022/01/28 10:08:12;;;;;;;1.13;1.13;;;;;;;5.04;83.08;102919.59;5190172;28;20072;-80
2022/01/28 10:10:49;;;;;;;0.93;0.93;;;;;;;5.07;82.90;102918.78;5196340;28;20128;-80
2022/01/28 10:13:30;;;;;;;1.63;1.52;;;;;;;5.07;82.83;102924.00;5215530;28;20036;-79
2022/01/28 10:16:02;;;;;;;0.75;0.75;;;;;;;5.08;83.66;102929.25;5175633;28;20051;-79
2022/01/28 10:18:43;;;;;;;1.02;1.02;;;;;;;5.12;82.73;102940.63;5196971;28;20049;-78
2022/01/28 10:21:22;;;;;;;0.60;0.60;;;;;;;5.10;83.15;102940.59;5196399;28;20021;-78
2022/01/28 10:24:02;;;;;;;2.60;1.55;;;;;;;5.14;83.31;102937.22;5210599;28;20087;-78
2022/01/28 10:26:38;;;;;;;8.00;1.33;;;;;;;5.13;83.26;102942.41;5199199;28;20057;-78
2022/01/28 10:29:25;;;;;;;1.65;1.55;;;;;;;5.14;83.33;102936.38;5213979;28;20083;-79
2022/01/28 10:32:06;;;;;;;0.80;0.80;;;;;;;5.16;83.13;102945.13;5191799;28;20037;-79
2022/01/28 10:34:47;;;;;;;0.45;0.45;;;;;;;5.19;83.03;102940.88;5221266;28;20758;-78
2022/01/28 10:37:28;;;;;;;0.60;0.60;;;;;;;5.27;82.80;102942.84;5173191;28;20040;-82
2022/01/28 10:40:07;;;;;;;1.17;0.93;;;;;;;5.27;83.52;102953.25;5201914;28;20028;-81
2022/01/28 10:42:53;;;;;;;0.90;0.90;;;;;;;5.32;82.61;102942.16;5177081;28;20037;-80
2022/01/28 10:45:31;;;;;;;1.30;1.27;;;;;;;5.34;82.96;102940.44;5198977;28;20094;-82
2022/01/28 10:48:04;;;;;;;3.33;1.60;;;;;;;5.40;83.03;102947.56;5193631;28;20091;-79
2022/01/28 10:50:36;;;;;;;;;;;;;;;5.42;83.37;102945.00;5178095;28;20115;-78
2022/01/28 10:53:19;;;;;;;0.63;0.63;;;;;;;5.40;83.45;102939.75;5193970;28;19939;-78
2022/01/28 10:56:00;;;;;;;2.35;2.25;;;;;;;5.38;82.06;102935.34;5194469;28;20041;-79
2022/01/28 10:58:31;;;;;;;1.00;1.00;;;;;;;5.47;82.24;102940.84;5191232;28;20049;-78
2022/01/28 11:01:05;;;;;;;0.82;0.82;;;;;;;5.51;82.60;102930.56;5209575;28;20641;-79
2022/01/28 11:03:39;;;;;;;0.60;0.60;;;;;;;5.56;82.56;102925.47;5174535;28;20049;-78
2022/01/28 11:06:10;;;;;;;2.42;2.28;;;;;;;5.59;82.15;102935.09;5190900;28;20029;-79
2022/01/28 11:08:42;;;;;;;0.98;0.98;;;;;;;5.56;82.13;102943.72;5211676;28;20033;-78
2022/01/28 11:11:13;;;;;;;0.60;0.60;;;;;;;5.56;81.59;102932.41;5212315;28;20032;-79
2022/01/28 11:13:44;;;;;;;1.35;1.33;;;;;;;5.59;81.11;102941.19;5207062;28;20044;-79
2022/01/28 11:16:15;;;;;;;1.10;1.10;;;;;;;5.62;81.62;102945.63;5191049;28;20029;-79
2022/01/28 11:18:47;;;;;;;0.80;0.80;;;;;;;5.62;81.80;102937.81;5192558;28;20036;-78
2022/01/28 11:21:23;;;;;;;1.35;1.25;;;;;;;5.65;80.33;102943.09;5198619;28;20037;-79
2022/01/28 11:24:18;;;;;;;1.48;1.33;;;;;;;5.66;81.31;102944.84;5152414;28;20032;-78
2022/01/28 11:27:00;;;;;;;1.13;1.13;;;;;;;5.70;80.43;102949.34;5210756;28;20587;-79
2022/01/28 11:29:31;;;;;;;1.20;1.20;;;;;;;5.80;80.05;102953.94;5204443;28;20406;-78
2022/01/28 11:32:14;;;;;;;0.93;0.93;;;;;;;5.83;80.91;102945.31;5197310;28;20120;-79
2022/01/28 11:34:57;;;;;;;1.33;1.27;;;;;;;5.81;80.54;102944.44;5183730;28;20051;-79
2022/01/28 11:37:33;;;;;;;1.03;0.73;;;;;;;5.84;80.29;102939.28;5212249;28;20048;-79
2022/01/28 11:40:12;;;;;;;0.98;0.98;;;;;;;5.88;80.72;102933.34;5186486;28;20059;-77
2022/01/28 11:42:43;;;;;;;2.92;1.95;;;;;;;5.94;80.45;102917.00;5191456;28;20525;-79
2022/01/28 11:45:13;;;;;;;0.85;0.85;;;;;;;6.05;79.91;102919.91;5211491;28;20029;-79
2022/01/28 11:47:57;;;;;;;1.65;1.55;;;;;;;6.12;79.40;102911.41;5192905;28;20052;-79
2022/01/28 11:50:27;;;;;;;1.35;1.25;;;;;;;6.18;79.01;102906.34;5205455;28;20047;-79
2022/01/28 11:53:00;;;;;;;0.68;0.68;;;;;;;6.20;79.54;102909.91;5221223;28;20041;-78
2022/01/28 11:55:34;;;;;;;1.23;1.13;;;;;;;6.30;78.84;102893.66;5192861;28;20055;-79
2022/01/28 11:58:12;;;;;;;0.70;0.70;;;;;;;6.47;77.94;102893.19;5195557;28;20529;-80
2022/01/28 12:00:47;;;;;;;6.18;1.90;;;;;;;6.55;78.16;102891.66;5197360;28;20090;-80
2022/01/28 12:03:20;;;;;;;1.05;0.95;;;;;;;6.60;76.17;102890.03;5197928;28;20583;-80
2022/01/28 12:06:09;;;;;;;0.60;0.60;;;;;;;6.67;75.94;102892.78;5209790;28;20059;-82
2022/01/28 12:08:41;;;;;;;1.17;1.08;;;;;;;6.72;75.77;102892.06;5177316;28;20408;-82
2022/01/28 12:11:13;;;;;;;1.50;1.48;;;;;;;6.77;75.27;102898.28;5222386;28;20439;-80
2022/01/28 12:14:14;;;;;;;0.80;0.80;;;;;;;6.82;75.04;102889.66;5187371;28;20056;-80
2022/01/28 12:16:46;;;;;;;3.15;1.25;;;;;;;6.82;76.26;102887.94;5205852;28;20143;-80
2022/01/28 12:19:19;;;;;;;0.50;0.50;;;;;;;6.95;75.21;102888.22;5204608;28;20079;-80
2022/01/28 12:22:09;;;;;;;1.02;1.02;;;;;;;6.86;74.61;102876.72;5181643;28;20041;-79
2022/01/28 12:24:39;;;;;;;18.88;2.40;;;;;;;7.00;75.22;102873.53;5209946;28;20407;-80
2022/01/28 12:27:13;;;;;;;5.50;1.70;;;;;;;7.16;74.55;102880.00;5194135;28;20028;-79
2022/01/28 12:29:45;;;;;;;;;;;;;;;7.00;73.02;102884.88;5227879;28;20021;-80
2022/01/28 12:32:24;;;;;;;1.05;1.05;;;;;;;7.06;73.36;102881.53;5206443;28;19958;-79
2022/01/28 12:34:54;;;;;;;0.50;0.50;;;;;;;7.04;73.02;102883.22;5210134;28;20037;-80
2022/01/28 12:37:28;;;;;;;4.22;0.95;;;;;;;7.02;73.93;102877.06;5154045;28;20074;-79
2022/01/28 12:40:05;;;;;;;3.85;2.20;;;;;;;7.01;73.76;102875.31;5195368;28;20037;-80
2022/01/28 12:42:42;;;;;;;0.40;0.40;;;;;;;7.05;73.06;102871.94;5163734;28;20060;-80
2022/01/28 12:45:15;;;;;;;1.15;1.05;;;;;;;6.97;73.16;102871.75;5211994;28;20049;-79
2022/01/28 12:47:46;;;;;;;0.40;0.40;;;;;;;7.00;74.25;102882.28;5182198;28;20121;-81
2022/01/28 12:50:16;;;;;;;0.65;0.65;;;;;;;7.03;76.64;102863.19;5176272;28;20120;-81
2022/01/28 12:52:47;;;;;;;2.38;1.90;;;;;;;6.99;74.91;102871.78;5186745;28;20136;-80
2022/01/28 12:55:18;;;;;;;1.80;1.70;;;;;;;6.98;73.99;102868.28;5176757;28;20032;-79
2022/01/28 12:57:48;;;;;;;4.07;3.17;;;;;;;7.02;75.85;102864.03;5180429;28;20159;-79
2022/01/28 13:00:19;;;;;;;0.82;0.82;;;;;;;6.98;73.04;102859.59;5190086;28;20029;-80
2022/01/28 13:02:51;;;;;;;0.63;0.63;;;;;;;7.00;72.97;102860.50;5177177;28;20069;-80
2022/01/28 13:05:36;;;;;;;0.60;0.60;;;;;;;6.96;71.72;102851.72;5191579;28;20043;-81
2022/01/28 13:08:25;;;;;;;8.30;1.50;;;;;;;6.94;72.07;102848.22;5175463;28;20036;-80
2022/01/28 13:10:56;;;;;;;0.60;0.60;;;;;;;7.09;72.87;102850.25;5212832;28;20025;-80
2022/01/28 13:13:26;;;;;;;11.02;1.88;;;;;;;7.09;72.06;102853.75;5173527;28;20033;-81
2022/01/28 13:15:57;;;;;;;1.73;1.23;;;;;;;7.10;70.02;102852.03;5218477;28;20114;-80
2022/01/28 13:18:28;;;;;;;0.57;0.57;;;;;;;7.17;71.49;102850.44;5204479;28;20041;-80
2022/01/28 13:20:59;;;;;;;0.57;0.57;;;;;;;7.11;70.65;102851.19;5190984;28;20029;-81
2022/01/28 13:23:34;;;;;;;13.30;1.30;;;;;;;7.07;71.33;102849.34;5214315;28;20680;-81
2022/01/28 13:26:05;;;;;;;0.98;0.98;;;;;;;7.07;72.20;102844.09;5211115;28;20087;-82
2022/01/28 13:28:36;;;;;;;1.65;1.45;;;;;;;7.09;72.95;102830.28;5153070;28;20793;-81
2022/01/28 13:31:06;;;;;;;0.45;0.45;;;;;;;7.10;72.97;102833.75;5196492;28;20025;-81
2022/01/28 13:33:37;;;;;;;0.85;0.85;;;;;;;7.12;73.37;102834.66;5179056;28;20044;-79
2022/01/28 13:36:11;;;;;;;2.17;1.98;;;;;;;7.14;72.45;102838.19;5195264;28;20810;-79
2022/01/28 13:38:41;;;;;;;5.90;1.55;;;;;;;7.08;70.97;102825.00;5175254;28;20511;-80